createdAt,value
2022-09-17T00:01:25.205Z,11.08
2022-09-17T00:03:55.262Z,11.07
2022-09-17T00:06:24.441Z,11.20
2022-09-17T00:08:53.406Z,10.94
2022-09-17T00:11:24.999Z,10.93
2022-09-17T00:13:53.564Z,10.96
2022-09-17T00:16:28.525Z,11.11
2022-09-17T00:18:57.440Z,11.10
2022-09-17T00:21:25.939Z,11.11
2022-09-17T00:23:57.558Z,11.28
2022-09-17T00:26:27.572Z,11.10
2022-09-17T00:28:56.558Z,11.11
2022-09-17T00:31:25.198Z,10.96
2022-09-17T00:33:53.824Z,10.93
2022-09-17T00:36:22.370Z,10.66
2022-09-17T00:38:51.689Z,10.87
2022-09-17T00:41:19.406Z,10.90
2022-09-17T00:43:51.971Z,10.83
2022-09-17T00:46:30.695Z,10.85
2022-09-17T00:49:01.155Z,10.91
2022-09-17T00:51:33.931Z,10.94
2022-09-17T00:54:03.909Z,10.97
2022-09-17T00:56:34.905Z,10.99
2022-09-17T00:59:05.028Z,10.93
2022-09-17T01:01:33.913Z,11.08
2022-09-17T01:04:01.694Z,11.01
2022-09-17T01:06:35.302Z,11.20
2022-09-17T01:09:18.575Z,11.24
2022-09-17T01:12:10.997Z,11.10
2022-09-17T01:14:53.279Z,11.12
2022-09-17T01:17:30.741Z,11.15
2022-09-17T01:20:44.061Z,11.18
2022-09-17T01:23:33.041Z,11.21
2022-09-17T01:26:28.023Z,11.17
2022-09-17T01:29:06.935Z,11.06
2022-09-17T01:31:42.018Z,11.31
2022-09-17T01:34:20.191Z,11.11
2022-09-17T01:36:59.446Z,11.07
2022-09-17T01:39:31.850Z,10.84
2022-09-17T01:42:08.386Z,10.61
2022-09-17T01:44:40.223Z,11.06
2022-09-17T01:47:16.702Z,10.96
2022-09-17T01:49:48.321Z,10.79
2022-09-17T01:52:16.858Z,10.85
2022-09-17T01:54:49.210Z,10.74
2022-09-17T01:57:23.590Z,10.71
2022-09-17T01:59:56.580Z,10.71
2022-09-17T02:02:31.127Z,10.69
2022-09-17T02:05:02.798Z,10.94
2022-09-17T02:07:33.827Z,10.81
2022-09-17T02:10:07.526Z,10.84
2022-09-17T02:12:39.488Z,10.87
2022-09-17T02:15:10.779Z,11.07
2022-09-17T02:17:45.384Z,11.08
2022-09-17T02:20:14.279Z,11.28
2022-09-17T02:22:48.655Z,11.11
2022-09-17T02:25:25.371Z,11.08
2022-09-17T02:27:59.457Z,11.18
2022-09-17T02:30:27.349Z,11.08
2022-09-17T02:32:56.737Z,10.99
2022-09-17T02:35:24.367Z,10.87
2022-09-17T02:37:53.198Z,11.14
2022-09-17T02:40:24.884Z,11.01
2022-09-17T02:43:08.771Z,10.96
2022-09-17T02:45:46.943Z,11.12
2022-09-17T02:48:46.661Z,11.01
2022-09-17T02:51:29.040Z,11.15
2022-09-17T02:54:03.930Z,11.15
2022-09-17T02:56:44.291Z,11.10
2022-09-17T02:59:20.580Z,11.07
2022-09-17T03:01:52.475Z,11.15
2022-09-17T03:04:24.345Z,11.11
2022-09-17T03:06:53.849Z,11.12
2022-09-17T03:09:21.692Z,11.10
2022-09-17T03:11:49.548Z,11.06
2022-09-17T03:14:17.284Z,11.06
2022-09-17T03:16:45.030Z,11.14
2022-09-17T03:19:12.806Z,11.01
2022-09-17T03:21:41.966Z,11.08
2022-09-17T03:24:11.575Z,11.08
2022-09-17T03:26:39.707Z,11.18
2022-09-17T03:29:07.470Z,11.10
2022-09-17T03:31:35.328Z,11.11
2022-09-17T03:34:03.170Z,11.12
2022-09-17T03:36:30.951Z,11.07
2022-09-17T03:39:00.715Z,11.14
2022-09-17T03:41:28.962Z,11.20
2022-09-17T03:43:56.679Z,10.99
2022-09-17T03:46:24.506Z,11.18
2022-09-17T03:48:52.308Z,11.03
2022-09-17T03:51:20.201Z,11.08
2022-09-17T03:53:48.300Z,11.10
2022-09-17T03:56:17.800Z,11.22
2022-09-17T03:58:45.726Z,11.14
2022-09-17T04:01:13.524Z,11.18
2022-09-17T04:03:45.289Z,11.18
2022-09-17T04:06:13.065Z,11.10
2022-09-17T04:08:40.819Z,11.20
2022-09-17T04:11:08.588Z,11.00
2022-09-17T04:13:37.814Z,11.03
2022-09-17T04:16:05.728Z,11.10
2022-09-17T04:18:33.515Z,11.27
2022-09-17T04:21:01.285Z,11.12
2022-09-17T04:23:29.106Z,11.07
2022-09-17T04:25:56.888Z,10.99
2022-09-17T04:28:24.889Z,10.99
2022-09-17T04:30:54.107Z,11.01
2022-09-17T04:33:22.431Z,11.08
2022-09-17T04:35:50.322Z,11.00
2022-09-17T04:38:20.463Z,11.10
2022-09-17T04:40:48.561Z,11.21
2022-09-17T04:43:16.490Z,11.11
2022-09-17T04:45:47.061Z,11.07
2022-09-17T04:48:16.282Z,10.96
2022-09-17T04:50:44.048Z,10.77
2022-09-17T04:53:12.523Z,10.99
2022-09-17T04:55:40.396Z,10.91
2022-09-17T04:58:08.184Z,10.99
2022-09-17T05:00:36.366Z,11.07
2022-09-17T05:03:04.470Z,11.14
2022-09-17T05:05:33.592Z,11.08
2022-09-17T05:08:01.470Z,11.11
2022-09-17T05:10:29.444Z,11.17
2022-09-17T05:12:58.007Z,11.34
2022-09-17T05:15:27.685Z,11.41
2022-09-17T05:17:55.430Z,11.62
2022-09-17T05:20:23.375Z,11.52
2022-09-17T05:22:53.384Z,11.46
2022-09-17T05:25:24.103Z,11.48
2022-09-17T05:27:52.788Z,11.14
2022-09-17T05:30:21.066Z,11.20
2022-09-17T05:32:49.134Z,11.45
2022-09-17T05:35:17.357Z,11.34
2022-09-17T05:37:45.093Z,11.36
2022-09-17T05:40:14.284Z,11.55
2022-09-17T05:42:42.084Z,11.49
2022-09-17T05:45:10.448Z,11.54
2022-09-17T05:47:38.223Z,11.51
2022-09-17T05:50:06.687Z,11.45
2022-09-17T05:52:34.431Z,11.66
2022-09-17T05:55:02.192Z,11.86
2022-09-17T05:57:31.337Z,11.94
2022-09-17T05:59:59.393Z,11.97
2022-09-17T06:02:27.117Z,11.82
2022-09-17T06:04:55.348Z,11.71
2022-09-17T06:07:23.117Z,11.72
2022-09-17T06:09:50.879Z,11.52
2022-09-17T06:12:18.678Z,11.48
2022-09-17T06:14:47.838Z,11.39
2022-09-17T06:17:19.061Z,11.52
2022-09-17T06:19:49.861Z,11.76
2022-09-17T06:22:19.319Z,11.90
2022-09-17T06:24:47.066Z,11.75
2022-09-17T06:27:14.979Z,11.63
2022-09-17T06:29:42.762Z,11.52
2022-09-17T06:32:13.090Z,11.71
2022-09-17T06:34:40.910Z,11.63
2022-09-17T06:37:08.697Z,11.57
2022-09-17T06:39:36.792Z,11.61
2022-09-17T06:42:04.767Z,11.69
2022-09-17T06:44:33.600Z,11.83
2022-09-17T06:47:01.401Z,12.03
2022-09-17T06:49:31.167Z,12.30
2022-09-17T06:51:58.975Z,12.48
2022-09-17T06:54:26.796Z,12.96
2022-09-17T06:56:54.508Z,13.20
2022-09-17T06:59:22.420Z,13.33
2022-09-17T07:01:50.257Z,13.46
2022-09-17T07:04:18.892Z,13.20
2022-09-17T07:06:47.995Z,13.15
2022-09-17T07:09:15.745Z,13.35
2022-09-17T07:11:46.037Z,13.53
2022-09-17T07:14:13.764Z,13.76
2022-09-17T07:16:41.518Z,13.63
2022-09-17T07:19:09.388Z,13.53
2022-09-17T07:21:37.118Z,13.56
2022-09-17T07:24:06.507Z,13.60
2022-09-17T07:26:34.309Z,13.73
2022-09-17T07:29:02.113Z,13.71
2022-09-17T07:31:29.916Z,14.11
2022-09-17T07:33:57.692Z,13.69
2022-09-17T07:36:25.421Z,13.70
2022-09-17T07:38:53.167Z,13.56
2022-09-17T07:41:22.394Z,13.42
2022-09-17T07:43:53.188Z,13.54
2022-09-17T07:46:24.064Z,13.50
2022-09-17T07:48:51.894Z,13.66
2022-09-17T07:51:21.913Z,13.80
2022-09-17T07:53:52.745Z,14.07
2022-09-17T07:56:22.316Z,14.64
2022-09-17T07:58:50.336Z,15.59
2022-09-17T08:01:20.848Z,15.68
2022-09-17T08:03:50.289Z,15.02
2022-09-17T08:06:21.117Z,14.71
2022-09-17T08:08:49.100Z,15.17
2022-09-17T08:11:38.303Z,17.66
2022-09-17T08:14:10.673Z,19.47
2022-09-17T08:16:38.433Z,20.34
2022-09-17T08:19:06.448Z,20.05
2022-09-17T08:21:34.222Z,20.29
2022-09-17T08:24:02.362Z,21.02
2022-09-17T08:26:30.175Z,22.15
2022-09-17T08:28:58.660Z,22.70
2022-09-17T08:31:30.570Z,23.28
2022-09-17T08:33:58.522Z,22.36
2022-09-17T08:36:27.342Z,21.23
2022-09-17T08:38:56.386Z,21.64
2022-09-17T08:41:34.220Z,22.42
2022-09-17T08:44:12.192Z,21.84
2022-09-17T08:46:47.004Z,21.02
2022-09-17T08:49:24.092Z,20.39
2022-09-17T08:52:02.329Z,19.22
2022-09-17T08:54:37.135Z,18.69
2022-09-17T08:57:17.191Z,18.50
2022-09-17T08:59:50.697Z,17.99
2022-09-17T09:02:33.900Z,17.41
2022-09-17T09:05:06.571Z,16.71
2022-09-17T09:07:39.636Z,16.38
2022-09-17T09:10:16.011Z,15.54
2022-09-17T09:12:45.141Z,15.20
2022-09-17T09:15:24.711Z,15.11
2022-09-17T09:17:54.718Z,14.96
2022-09-17T09:20:32.195Z,15.06
2022-09-17T09:23:07.109Z,14.83
2022-09-17T09:25:42.687Z,14.65
2022-09-17T09:28:26.179Z,14.72
2022-09-17T09:31:02.660Z,14.66
2022-09-17T09:33:34.240Z,14.59
2022-09-17T09:36:02.437Z,15.30
2022-09-17T09:38:34.445Z,15.61
2022-09-17T09:41:10.111Z,16.43
2022-09-17T09:44:02.749Z,17.22
2022-09-17T09:46:52.175Z,17.66
2022-09-17T09:49:48.369Z,17.80
2022-09-17T09:52:27.833Z,18.52
2022-09-17T09:55:07.481Z,19.53
2022-09-17T09:57:44.267Z,19.43
2022-09-17T10:00:29.024Z,20.56
2022-09-17T10:03:02.967Z,21.22
2022-09-17T10:05:33.115Z,20.24
2022-09-17T10:08:01.313Z,19.62
2022-09-17T10:10:29.135Z,20.18
2022-09-17T10:13:07.397Z,20.07
2022-09-17T10:15:35.313Z,20.46
2022-09-17T10:18:20.126Z,20.68
2022-09-17T10:20:54.995Z,21.28
2022-09-17T10:23:23.340Z,20.79
2022-09-17T10:25:52.100Z,21.38
2022-09-17T10:28:39.682Z,22.05
2022-09-17T10:31:10.621Z,22.23
2022-09-17T10:33:52.700Z,20.87
2022-09-17T10:36:40.176Z,20.38
2022-09-17T10:39:30.036Z,19.70
2022-09-17T10:41:59.839Z,19.02
2022-09-17T10:44:29.231Z,18.03
2022-09-17T10:47:04.222Z,18.45
2022-09-17T10:49:40.858Z,18.21
2022-09-17T10:52:15.725Z,19.69
2022-09-17T10:55:00.780Z,20.24
2022-09-17T10:57:41.806Z,19.62
2022-09-17T11:00:17.096Z,20.36
2022-09-17T11:03:23.206Z,20.72
2022-09-17T11:06:32.583Z,21.28
2022-09-17T11:09:13.711Z,21.45
2022-09-17T11:11:52.261Z,21.08
2022-09-17T11:14:43.192Z,20.76
2022-09-17T11:17:21.627Z,21.54
2022-09-17T11:19:57.222Z,22.45
2022-09-17T11:22:31.345Z,21.91
2022-09-17T11:25:18.755Z,22.29
2022-09-17T11:28:02.037Z,22.08
2022-09-17T11:30:35.597Z,20.61
2022-09-17T11:33:28.671Z,20.25
2022-09-17T11:36:01.058Z,20.51
2022-09-17T11:38:34.777Z,19.62
2022-09-17T11:41:07.749Z,18.68
2022-09-17T11:43:38.619Z,19.75
2022-09-17T11:46:10.919Z,20.35
2022-09-17T11:48:44.458Z,20.69
2022-09-17T11:51:23.558Z,20.51
2022-09-17T11:53:53.896Z,20.94
2022-09-17T11:56:27.559Z,20.17
2022-09-17T11:59:00.593Z,19.32
2022-09-17T12:01:37.041Z,19.06
2022-09-17T12:04:31.142Z,18.45
2022-09-17T12:07:03.445Z,17.61
2022-09-17T12:09:37.917Z,17.32
2022-09-17T12:12:26.307Z,18.40
2022-09-17T12:15:06.996Z,19.09
2022-09-17T12:17:40.832Z,18.55
2022-09-17T12:20:19.941Z,18.50
2022-09-17T12:22:49.232Z,17.75
2022-09-17T12:25:17.397Z,17.27
2022-09-17T12:27:55.089Z,17.07
2022-09-17T12:30:26.150Z,16.87
2022-09-17T12:33:17.653Z,16.57
2022-09-17T12:36:04.990Z,15.64
2022-09-17T12:39:03.708Z,14.44
2022-09-17T12:41:42.845Z,12.82
2022-09-17T12:44:28.853Z,11.83
2022-09-17T12:47:15.721Z,11.17
2022-09-17T12:50:04.027Z,10.89
2022-09-17T12:52:44.815Z,10.90
2022-09-17T12:55:25.775Z,11.12
2022-09-17T12:58:01.635Z,11.97
2022-09-17T13:00:41.335Z,12.22
2022-09-17T13:03:16.883Z,12.16
2022-09-17T13:06:09.099Z,12.10
2022-09-17T13:09:14.848Z,12.12
2022-09-17T13:12:09.084Z,12.00
2022-09-17T13:14:59.941Z,11.85
2022-09-17T13:17:34.989Z,11.93
2022-09-17T13:20:12.245Z,12.03
2022-09-17T13:22:46.214Z,12.19
2022-09-17T13:25:17.262Z,12.51
2022-09-17T13:27:45.968Z,12.71
2022-09-17T13:30:15.446Z,13.05
2022-09-17T13:32:45.850Z,12.84
2022-09-17T13:35:48.899Z,12.71
2022-09-17T13:38:20.236Z,12.47
2022-09-17T13:40:51.072Z,12.27
2022-09-17T13:43:23.885Z,12.30
2022-09-17T13:46:12.281Z,12.40
2022-09-17T13:48:50.273Z,13.23
2022-09-17T13:51:50.760Z,13.53
2022-09-17T13:54:21.682Z,13.78
2022-09-17T13:57:03.585Z,13.66
2022-09-17T13:59:31.567Z,13.73
2022-09-17T14:02:18.961Z,13.53
2022-09-17T14:04:51.237Z,13.80
2022-09-17T14:07:48.897Z,13.86
2022-09-17T14:10:41.579Z,13.91
2022-09-17T14:13:52.926Z,13.84
2022-09-17T14:16:35.610Z,13.76
2022-09-17T14:19:18.237Z,13.87
2022-09-17T14:22:00.408Z,13.88
2022-09-17T14:24:35.087Z,14.03
2022-09-17T14:27:12.088Z,14.00
2022-09-17T14:29:54.020Z,14.03
2022-09-17T14:32:32.229Z,14.11
2022-09-17T14:35:01.861Z,14.21
2022-09-17T14:37:31.190Z,14.35
2022-09-17T14:40:00.014Z,14.56
2022-09-17T14:42:35.175Z,14.38
2022-09-17T14:45:07.409Z,14.52
2022-09-17T14:47:35.192Z,14.62
2022-09-17T14:50:21.496Z,14.66
2022-09-17T14:52:51.845Z,14.66
2022-09-17T14:55:22.061Z,14.65
2022-09-17T14:57:53.526Z,14.58
2022-09-17T15:00:24.405Z,14.69
2022-09-17T15:02:54.320Z,14.71
2022-09-17T15:05:31.818Z,14.72
2022-09-17T15:08:12.603Z,14.87
2022-09-17T15:10:47.812Z,14.82
2022-09-17T15:13:19.126Z,14.92
2022-09-17T15:16:02.344Z,14.69
2022-09-17T15:18:42.786Z,14.55
2022-09-17T15:21:24.426Z,14.46
2022-09-17T15:23:56.831Z,14.35
2022-09-17T15:26:30.022Z,14.35
2022-09-17T15:28:58.586Z,14.31
2022-09-17T15:31:30.435Z,14.31
2022-09-17T15:34:00.680Z,14.25
2022-09-17T15:36:31.546Z,14.13
2022-09-17T15:39:00.695Z,14.07
2022-09-17T15:41:33.741Z,13.98
2022-09-17T15:44:28.479Z,13.97
2022-09-17T15:46:57.683Z,13.91
2022-09-17T15:49:31.006Z,13.93
2022-09-17T15:52:31.276Z,13.91
2022-09-17T15:55:00.623Z,13.88
2022-09-17T15:57:28.794Z,13.87
2022-09-17T15:59:57.514Z,13.86
2022-09-17T16:02:31.903Z,13.83
2022-09-17T16:05:54.173Z,13.84
2022-09-17T16:08:34.061Z,13.93
2022-09-17T16:11:01.821Z,13.97
2022-09-17T16:13:29.675Z,13.91
2022-09-17T16:15:57.568Z,13.98
2022-09-17T16:18:25.759Z,13.97
2022-09-17T16:20:53.488Z,13.83
2022-09-17T16:23:21.240Z,13.67
2022-09-17T16:25:51.040Z,13.56
2022-09-17T16:28:20.680Z,13.46
2022-09-17T16:30:49.613Z,13.43
2022-09-17T16:33:19.177Z,13.40
2022-09-17T16:35:46.967Z,13.42
2022-09-17T16:38:15.201Z,13.40
2022-09-17T16:40:44.972Z,13.29
2022-09-17T16:43:14.145Z,13.22
2022-09-17T16:45:42.019Z,13.09
2022-09-17T16:48:10.054Z,13.02
2022-09-17T16:50:41.040Z,13.01
2022-09-17T16:53:08.805Z,12.98
2022-09-17T16:55:37.540Z,12.98
2022-09-17T16:58:05.379Z,12.92
2022-09-17T17:00:35.012Z,12.98
2022-09-17T17:03:02.846Z,12.91
2022-09-17T17:05:31.197Z,12.72
2022-09-17T17:08:02.162Z,12.57
2022-09-17T17:10:32.345Z,12.44
2022-09-17T17:13:00.464Z,12.33
2022-09-17T17:15:28.261Z,12.22
2022-09-17T17:17:57.592Z,12.03
2022-09-17T17:20:25.109Z,11.92
2022-09-17T17:22:52.886Z,11.83
2022-09-17T17:25:20.650Z,11.71
2022-09-17T17:27:48.416Z,11.65
2022-09-17T17:30:17.378Z,11.59
2022-09-17T17:32:46.036Z,11.51
2022-09-17T17:35:15.313Z,11.41
2022-09-17T17:37:42.929Z,11.31
2022-09-17T17:40:11.558Z,11.25
2022-09-17T17:42:43.722Z,11.24
2022-09-17T17:45:12.198Z,11.14
2022-09-17T17:47:40.028Z,11.11
2022-09-17T17:50:08.642Z,11.06
2022-09-17T17:52:39.043Z,10.99
2022-09-17T17:55:07.771Z,10.96
2022-09-17T17:57:35.662Z,11.03
2022-09-17T18:00:03.885Z,11.08
2022-09-17T18:02:39.805Z,11.08
2022-09-17T18:05:08.031Z,11.10
2022-09-17T18:07:37.127Z,11.10
2022-09-17T18:10:05.584Z,11.11
2022-09-17T18:12:33.410Z,11.08
2022-09-17T18:15:01.245Z,11.03
2022-09-17T18:17:31.397Z,11.01
2022-09-17T18:19:59.159Z,11.01
2022-09-17T18:22:26.931Z,11.08
2022-09-17T18:24:56.032Z,11.10
2022-09-17T18:27:23.819Z,11.17
2022-09-17T18:29:51.649Z,11.21
2022-09-17T18:32:19.459Z,11.30
2022-09-17T18:34:47.269Z,11.32
2022-09-17T18:37:15.143Z,11.42
2022-09-17T18:39:59.401Z,11.43
2022-09-17T18:42:28.878Z,11.49
2022-09-17T18:44:56.619Z,11.59
2022-09-17T18:47:24.566Z,11.59
2022-09-17T18:49:52.323Z,11.58
2022-09-17T18:52:20.266Z,11.68
2022-09-17T18:54:47.990Z,11.59
2022-09-17T18:57:16.032Z,11.61
2022-09-17T18:59:45.118Z,11.62
2022-09-17T19:02:13.731Z,11.65
2022-09-17T19:04:41.504Z,11.68
2022-09-17T19:07:09.283Z,11.71
2022-09-17T19:09:37.035Z,11.65
2022-09-17T19:12:05.073Z,11.68
2022-09-17T19:14:32.820Z,11.68
2022-09-17T19:17:02.037Z,11.63
2022-09-17T19:19:29.926Z,11.68
2022-09-17T19:21:57.679Z,11.65
2022-09-17T19:24:25.418Z,11.58
2022-09-17T19:26:53.486Z,11.51
2022-09-17T19:29:21.275Z,11.51
2022-09-17T19:31:49.127Z,11.48
2022-09-17T19:34:18.354Z,11.45
2022-09-17T19:36:46.151Z,11.42
2022-09-17T19:39:13.923Z,11.39
2022-09-17T19:41:41.710Z,11.38
2022-09-17T19:44:09.944Z,11.35
2022-09-17T19:46:37.763Z,11.35
2022-09-17T19:49:05.663Z,11.31
2022-09-17T19:51:35.237Z,11.24
2022-09-17T19:54:03.030Z,11.20
2022-09-17T19:56:30.751Z,11.18
2022-09-17T19:59:01.392Z,11.18
2022-09-17T20:01:29.213Z,11.18
2022-09-17T20:03:57.083Z,11.15
2022-09-17T20:06:24.818Z,11.10
2022-09-17T20:08:55.297Z,11.11
2022-09-17T20:11:24.883Z,11.08
2022-09-17T20:13:58.076Z,11.08
2022-09-17T20:16:27.150Z,11.03
2022-09-17T20:18:54.985Z,10.96
2022-09-17T20:21:24.625Z,11.00
2022-09-17T20:23:54.167Z,10.94
2022-09-17T20:26:22.393Z,10.91
2022-09-17T20:28:51.521Z,10.93
2022-09-17T20:31:21.836Z,10.93
2022-09-17T20:33:53.105Z,10.90
2022-09-17T20:36:23.014Z,10.85
2022-09-17T20:41:42.232Z,10.87
2022-09-17T20:44:10.101Z,10.85
2022-09-17T20:46:37.904Z,10.87
2022-09-17T20:49:05.844Z,10.84
2022-09-17T20:51:33.941Z,10.79
2022-09-17T20:54:02.130Z,10.81
2022-09-17T20:56:31.420Z,10.81
2022-09-17T20:59:09.309Z,10.76
2022-09-17T21:01:38.195Z,10.71
2022-09-17T21:04:07.945Z,10.73
2022-09-17T21:06:37.614Z,10.71
2022-09-17T21:09:06.652Z,10.74
2022-09-17T21:11:35.171Z,10.71
2022-09-17T21:14:04.811Z,10.71
2022-09-17T21:16:32.905Z,10.71
2022-09-17T21:19:02.379Z,10.76
2022-09-17T21:21:30.683Z,10.80
2022-09-17T21:24:01.276Z,10.80
2022-09-17T21:26:29.566Z,10.84
2022-09-17T21:28:58.397Z,10.85
2022-09-17T21:31:32.336Z,10.87
2022-09-17T21:34:02.384Z,10.91
2022-09-17T21:36:32.331Z,10.94
2022-09-17T21:39:01.597Z,10.91
2022-09-17T21:41:30.368Z,10.87
2022-09-17T21:43:58.154Z,10.89
2022-09-17T21:46:28.771Z,10.94
2022-09-17T21:48:58.071Z,10.91
2022-09-17T21:51:30.215Z,10.93
2022-09-17T21:54:00.175Z,10.94
2022-09-17T21:56:29.317Z,10.93
2022-09-17T21:58:59.114Z,10.94
2022-09-17T22:01:32.109Z,10.93
2022-09-17T22:04:01.944Z,10.94
2022-09-17T22:06:31.458Z,10.90
2022-09-17T22:09:00.589Z,10.87
2022-09-17T22:11:31.937Z,10.90
2022-09-17T22:14:04.991Z,10.80
2022-09-17T22:16:35.958Z,10.84
2022-09-17T22:19:04.754Z,10.83
2022-09-17T22:21:34.500Z,10.83
2022-09-17T22:24:04.052Z,10.83
2022-09-17T22:26:33.492Z,10.84
2022-09-17T22:29:02.818Z,10.81
2022-09-17T22:31:30.502Z,10.77
2022-09-17T22:33:59.946Z,10.81
2022-09-17T22:36:27.865Z,10.81
2022-09-17T22:38:57.527Z,10.80
2022-09-17T22:41:29.163Z,10.77
2022-09-17T22:43:58.479Z,10.74
2022-09-17T22:46:26.842Z,10.74
2022-09-17T22:48:55.269Z,10.76
2022-09-17T22:51:25.386Z,10.76
2022-09-17T22:53:53.231Z,10.76
2022-09-17T22:56:23.253Z,10.70
2022-09-17T22:58:51.270Z,10.69
2022-09-17T23:01:21.416Z,10.60
2022-09-17T23:03:50.418Z,10.64
2022-09-17T23:06:21.179Z,10.64
2022-09-17T23:08:50.719Z,10.66
2022-09-17T23:11:20.787Z,10.63
2022-09-17T23:13:48.721Z,10.66
2022-09-17T23:16:16.846Z,10.63
2022-09-17T23:18:44.915Z,10.59
2022-09-17T23:21:14.627Z,10.60
2022-09-17T23:23:44.058Z,10.60
2022-09-17T23:26:15.672Z,10.60
2022-09-17T23:28:43.456Z,10.57
2022-09-17T23:31:12.858Z,10.60
2022-09-17T23:33:41.287Z,10.61
2022-09-17T23:36:12.644Z,10.60
2022-09-17T23:38:41.353Z,10.59
2022-09-17T23:41:11.288Z,10.55
2022-09-17T23:43:40.574Z,10.55
2022-09-17T23:46:08.426Z,10.53
2022-09-17T23:48:36.235Z,10.55
2022-09-17T23:51:04.270Z,10.53
2022-09-17T23:53:32.301Z,10.57
2022-09-17T23:56:00.440Z,10.59
2022-09-17T23:58:30.993Z,10.57
